Time;durP1;ratioP1;P1;durP2;ratioP2;P2;SDS_P1;SDS_P2;PMS_P1;PMS_P2;Temp;Humidity;BMP_temperature;BMP_pressure;BME280_temperature;BME280_humidity;BME280_pressure;Samples;Min_cycle;Max_cycle;Signal;HPM_P1;HPM_P2
2023/04/18 00:02:05;;;;;;;9.60;5.63;;;7.70;99.90;;;;;;5045458;28;20064;-76
2023/04/18 00:04:32;;;;;;;13.50;7.25;;;7.70;99.90;;;;;;5045355;28;20044;-78
2023/04/18 00:06:58;;;;;;;10.32;6.50;;;7.60;99.90;;;;;;5045353;28;20045;-75
2023/04/18 00:09:24;;;;;;;10.38;6.78;;;7.60;99.90;;;;;;5045347;28;20030;-76
2023/04/18 00:11:50;;;;;;;12.07;7.65;;;7.60;99.90;;;;;;5045703;28;20025;-76
2023/04/18 00:14:16;;;;;;;11.30;7.22;;;7.60;99.90;;;;;;5045362;28;20033;-76
2023/04/18 00:16:42;;;;;;;12.70;7.68;;;7.60;99.90;;;;;;5045860;28;20045;-77
2023/04/18 00:19:08;;;;;;;12.38;7.90;;;7.60;99.90;;;;;;5045869;28;20036;-78
2023/04/18 00:21:34;;;;;;;14.38;8.50;;;7.60;99.90;;;;;;5045328;28;20045;-77
2023/04/18 00:24:00;;;;;;;12.35;7.32;;;7.60;99.90;;;;;;5045230;28;20539;-77
2023/04/18 00:26:26;;;;;;;12.95;8.25;;;7.60;99.90;;;;;;5044974;28;20030;-76
2023/04/18 00:28:52;;;;;;;14.48;8.65;;;7.60;99.90;;;;;;5045437;28;20104;-76
2023/04/18 00:31:18;;;;;;;13.50;8.07;;;7.60;99.90;;;;;;5044592;28;20060;-78
2023/04/18 00:33:43;;;;;;;16.73;8.82;;;7.50;99.90;;;;;;5044582;28;20025;-76
2023/04/18 00:36:09;;;;;;;12.25;7.57;;;7.50;99.90;;;;;;5044840;28;20038;-76
2023/04/18 00:38:35;;;;;;;15.13;8.95;;;7.50;99.90;;;;;;5045313;28;20068;-78
2023/04/18 00:41:01;;;;;;;14.98;8.70;;;7.50;99.90;;;;;;5045336;28;20033;-79
2023/04/18 00:43:27;;;;;;;14.07;8.63;;;7.50;99.90;;;;;;5045170;28;20049;-78
2023/04/18 00:45:52;;;;;;;17.42;9.23;;;7.50;99.90;;;;;;5045105;28;20033;-77
2023/04/18 00:48:19;;;;;;;15.82;9.25;;;7.50;99.90;;;;;;5045136;28;20025;-78
2023/04/18 00:50:45;;;;;;;14.65;9.02;;;7.50;99.90;;;;;;5044235;28;20431;-78
2023/04/18 00:53:10;;;;;;;14.95;9.07;;;7.50;99.90;;;;;;5043195;28;20029;-77
2023/04/18 00:55:37;;;;;;;16.70;9.27;;;7.50;99.90;;;;;;5044943;28;20033;-76
2023/04/18 00:58:03;;;;;;;14.68;9.48;;;7.50;99.90;;;;;;5044925;28;20021;-76
2023/04/18 01:00:28;;;;;;;14.80;9.25;;;7.50;99.90;;;;;;5044223;28;20027;-82
2023/04/18 01:02:54;;;;;;;16.15;9.40;;;7.50;99.90;;;;;;5048667;28;20465;-84
2023/04/18 01:05:21;;;;;;;15.13;9.50;;;7.40;99.90;;;;;;5048018;28;20025;-84
2023/04/18 01:07:47;;;;;;;16.55;10.18;;;7.40;99.90;;;;;;5047399;28;20473;-84
2023/04/18 01:10:13;;;;;;;16.75;9.63;;;7.40;99.90;;;;;;5047105;28;20033;-84
2023/04/18 01:12:39;;;;;;;17.33;9.68;;;7.40;99.90;;;;;;5047395;28;20484;-84
2023/04/18 01:15:06;;;;;;;18.60;10.30;;;7.40;99.90;;;;;;5030294;28;20048;-84
2023/04/18 01:17:33;;;;;;;18.50;10.10;;;7.40;99.90;;;;;;5048503;28;20072;-84
2023/04/18 01:20:00;;;;;;;15.50;10.20;;;7.40;99.90;;;;;;5047294;28;20037;-83
2023/04/18 01:22:27;;;;;;;16.05;10.23;;;7.40;99.90;;;;;;5046465;28;20030;-84
2023/04/18 01:24:52;;;;;;;18.25;11.13;;;7.30;99.90;;;;;;5047695;28;20185;-84
2023/04/18 01:27:18;;;;;;;17.13;9.88;;;7.30;99.90;;;;;;5047631;28;20026;-84
2023/04/18 01:29:43;;;;;;;16.98;9.95;;;7.30;99.90;;;;;;5047987;28;20503;-84
2023/04/18 01:32:09;;;;;;;20.33;11.57;;;7.30;99.90;;;;;;5048741;28;20037;-84
2023/04/18 01:34:35;;;;;;;19.92;11.32;;;7.30;99.90;;;;;;5050002;28;20041;-84
2023/04/18 01:37:00;;;;;;;20.17;12.20;;;7.30;99.90;;;;;;5050068;28;20037;-84
2023/04/18 01:39:26;;;;;;;18.35;11.10;;;7.30;99.90;;;;;;5050324;28;20350;-84
2023/04/18 01:41:52;;;;;;;18.80;11.77;;;7.30;99.90;;;;;;5050657;28;20013;-83
2023/04/18 01:44:18;;;;;;;19.40;11.93;;;7.30;99.90;;;;;;5051328;28;20054;-84
2023/04/18 01:46:43;;;;;;;20.80;11.27;;;7.30;99.90;;;;;;5050000;28;20030;-84
2023/04/18 01:49:09;;;;;;;21.00;11.77;;;7.30;99.90;;;;;;5048581;28;20033;-84
2023/04/18 01:51:37;;;;;;;21.00;11.93;;;7.30;99.90;;;;;;5048896;28;20094;-84
2023/04/18 01:54:03;;;;;;;21.25;11.95;;;7.30;99.90;;;;;;5047744;28;20056;-84
2023/04/18 01:56:29;;;;;;;20.77;11.23;;;7.30;99.90;;;;;;5050083;28;20050;-84
2023/04/18 01:58:55;;;;;;;23.02;13.00;;;7.30;99.90;;;;;;5050035;28;20038;-84
2023/04/18 02:01:20;;;;;;;20.70;11.90;;;7.20;99.90;;;;;;5050382;28;20441;-84
2023/04/18 02:03:46;;;;;;;21.00;12.85;;;7.30;99.90;;;;;;5051325;28;20029;-84
2023/04/18 02:06:12;;;;;;;18.63;11.77;;;7.20;99.90;;;;;;5050832;28;20021;-84
2023/04/18 02:08:37;;;;;;;21.63;11.70;;;7.20;99.90;;;;;;5051141;28;20037;-84
2023/04/18 02:11:03;;;;;;;20.10;11.82;;;7.20;99.90;;;;;;5050914;28;20034;-83
2023/04/18 02:13:29;;;;;;;20.42;12.20;;;7.20;99.90;;;;;;5051298;28;20080;-84
2023/04/18 02:15:55;;;;;;;20.50;11.73;;;7.20;99.90;;;;;;5050605;28;20041;-84
2023/04/18 02:18:23;;;;;;;23.35;13.50;;;7.20;99.90;;;;;;5050329;28;20092;-84
2023/04/18 02:20:50;;;;;;;20.83;11.90;;;7.20;99.90;;;;;;5051492;28;20091;-83
2023/04/18 02:23:15;;;;;;;22.23;12.68;;;7.20;99.90;;;;;;5051547;28;20040;-84
2023/04/18 02:25:41;;;;;;;23.05;12.55;;;7.20;99.90;;;;;;5049441;28;20033;-85
2023/04/18 02:28:07;;;;;;;24.73;14.13;;;7.20;99.90;;;;;;5049783;28;20029;-84
2023/04/18 02:30:32;;;;;;;23.05;13.73;;;7.20;99.90;;;;;;5047968;28;20461;-84
2023/04/18 02:32:58;;;;;;;19.77;12.80;;;7.20;99.90;;;;;;5048342;28;20037;-84
2023/04/18 02:35:24;;;;;;;20.08;11.95;;;7.20;99.90;;;;;;5048040;28;20033;-84
2023/04/18 02:37:50;;;;;;;22.98;13.07;;;7.20;99.90;;;;;;5048873;28;20018;-84
2023/04/18 02:40:16;;;;;;;23.20;12.65;;;7.10;99.90;;;;;;5049397;28;20080;-84
2023/04/18 02:42:42;;;;;;;23.42;14.32;;;7.10;99.90;;;;;;5048410;28;20026;-83
2023/04/18 02:45:08;;;;;;;23.95;12.90;;;7.00;99.90;;;;;;5047711;28;20027;-81
2023/04/18 02:47:34;;;;;;;21.63;12.32;;;7.00;99.90;;;;;;5046322;28;20028;-84
2023/04/18 02:50:00;;;;;;;25.17;14.32;;;7.00;99.90;;;;;;5046125;28;20029;-84
2023/04/18 02:52:26;;;;;;;22.90;13.40;;;6.90;99.90;;;;;;5046232;28;20036;-84
2023/04/18 02:54:52;;;;;;;23.27;13.25;;;6.90;99.90;;;;;;5047050;28;20060;-84
2023/04/18 02:57:17;;;;;;;22.08;12.75;;;6.80;99.90;;;;;;5046885;28;20052;-84
2023/04/18 02:59:43;;;;;;;23.20;13.88;;;6.80;99.90;;;;;;5045802;28;20021;-83
2023/04/18 03:02:09;;;;;;;23.73;13.77;;;6.80;99.90;;;;;;5044150;28;20049;-84
2023/04/18 03:04:34;;;;;;;23.92;13.52;;;6.70;99.90;;;;;;5048357;28;20037;-84
2023/04/18 03:07:00;;;;;;;23.08;13.75;;;6.70;99.90;;;;;;5048613;28;20061;-83
2023/04/18 03:09:26;;;;;;;24.92;14.48;;;6.80;99.90;;;;;;5049997;28;20068;-84
2023/04/18 03:11:51;;;;;;;22.65;13.02;;;6.70;99.90;;;;;;5031234;28;20102;-84
2023/04/18 03:14:17;;;;;;;22.30;12.90;;;6.70;99.90;;;;;;5046615;28;20036;-84
2023/04/18 03:16:43;;;;;;;21.73;12.85;;;6.80;99.90;;;;;;5048759;28;20036;-83
2023/04/18 03:19:09;;;;;;;20.83;12.52;;;6.70;99.90;;;;;;5048318;28;20030;-84
2023/04/18 03:21:35;;;;;;;23.45;12.63;;;6.70;99.90;;;;;;5046596;28;20036;-84
2023/04/18 03:24:00;;;;;;;24.27;12.80;;;6.70;99.90;;;;;;5031184;28;20033;-84
2023/04/18 03:26:26;;;;;;;22.15;12.77;;;6.70;99.90;;;;;;5047556;28;20167;-84
2023/04/18 03:28:52;;;;;;;24.65;13.85;;;6.70;99.90;;;;;;5031385;28;20025;-84
2023/04/18 03:31:18;;;;;;;24.45;13.73;;;6.60;99.90;;;;;;5048865;28;20040;-84
2023/04/18 03:33:44;;;;;;;22.63;12.85;;;6.60;99.90;;;;;;5046882;28;20033;-83
2023/04/18 03:36:16;;;;;;;26.70;13.20;;;6.60;99.90;;;;;;5047365;28;20025;-84
2023/04/18 03:38:42;;;;;;;27.65;14.60;;;6.60;99.90;;;;;;5047239;28;20053;-83
2023/04/18 03:41:08;;;;;;;26.65;14.02;;;6.50;99.90;;;;;;5046389;28;20044;-85
2023/04/18 03:43:34;;;;;;;25.88;14.13;;;6.50;99.90;;;;;;5046721;28;20045;-84
2023/04/18 03:46:00;;;;;;;26.83;13.02;;;6.50;99.90;;;;;;5047937;28;20017;-84
2023/04/18 03:48:25;;;;;;;23.88;13.32;;;6.50;99.90;;;;;;5046774;28;20165;-84
2023/04/18 03:50:51;;;;;;;24.10;13.05;;;6.50;99.90;;;;;;5047021;28;20462;-83
2023/04/18 03:53:16;;;;;;;23.85;12.20;;;6.50;99.90;;;;;;5047824;28;20036;-84
2023/04/18 03:55:42;;;;;;;25.80;14.20;;;6.50;99.90;;;;;;5047057;28;20037;-84
2023/04/18 03:58:08;;;;;;;25.50;13.32;;;6.50;99.90;;;;;;5047736;28;20057;-84
2023/04/18 04:00:34;;;;;;;24.77;13.65;;;6.50;99.90;;;;;;5045808;28;20041;-84
2023/04/18 04:03:00;;;;;;;24.65;13.48;;;6.40;99.90;;;;;;5048544;28;20420;-84
2023/04/18 04:05:26;;;;;;;24.85;13.30;;;6.50;99.90;;;;;;5047429;28;20041;-84
2023/04/18 04:07:52;;;;;;;25.23;13.10;;;6.40;99.90;;;;;;5047449;28;20030;-83
2023/04/18 04:10:17;;;;;;;22.52;13.57;;;6.50;99.90;;;;;;5048856;28;20083;-84
2023/04/18 04:12:43;;;;;;;26.42;14.57;;;6.50;99.90;;;;;;5047878;28;20079;-84
2023/04/18 04:15:09;;;;;;;25.00;13.63;;;6.40;99.90;;;;;;5030548;28;20049;-84
2023/04/18 04:17:35;;;;;;;25.40;12.73;;;6.40;99.90;;;;;;5048320;28;20072;-85
2023/04/18 04:20:01;;;;;;;24.92;14.02;;;6.40;99.90;;;;;;5046919;28;20030;-84
2023/04/18 04:22:26;;;;;;;25.65;14.13;;;6.50;99.90;;;;;;5047925;28;20034;-84
2023/04/18 04:24:52;;;;;;;26.90;14.75;;;6.50;99.90;;;;;;5047184;28;20029;-84
2023/04/18 04:27:19;;;;;;;27.63;14.75;;;6.40;99.90;;;;;;5049907;28;20036;-83
2023/04/18 04:29:44;;;;;;;27.85;14.45;;;6.50;99.90;;;;;;5050635;28;20535;-84
2023/04/18 04:32:11;;;;;;;27.25;13.82;;;6.50;99.90;;;;;;5049511;28;20029;-84
2023/04/18 04:34:37;;;;;;;31.17;15.73;;;6.50;99.90;;;;;;5050532;28;20124;-84
2023/04/18 04:37:02;;;;;;;29.17;15.35;;;6.50;99.90;;;;;;5026086;22;20523;-30
2023/04/18 04:39:28;;;;;;;34.90;16.13;;;6.40;99.90;;;;;;5000799;28;20026;-31
2023/04/18 04:41:54;;;;;;;32.33;15.98;;;6.40;99.90;;;;;;5004580;28;20030;-30
2023/04/18 04:44:21;;;;;;;31.33;16.42;;;6.40;99.90;;;;;;5002568;28;20034;-30
2023/04/18 04:46:46;;;;;;;31.55;16.17;;;6.50;99.90;;;;;;4997977;28;20086;-30
2023/04/18 04:49:12;;;;;;;31.63;14.93;;;6.50;99.90;;;;;;5005865;28;20038;-30
2023/04/18 04:51:38;;;;;;;35.80;18.63;;;6.50;99.90;;;;;;5003920;28;20058;-31
2023/04/18 04:54:05;;;;;;;32.90;15.75;;;6.50;99.90;;;;;;5005122;28;20448;-30
2023/04/18 04:56:30;;;;;;;34.17;17.17;;;6.50;99.90;;;;;;5003543;28;20080;-30
2023/04/18 04:58:56;;;;;;;32.80;16.70;;;6.50;99.90;;;;;;5003800;28;20033;-30
2023/04/18 05:01:22;;;;;;;31.63;15.80;;;6.40;99.90;;;;;;5002828;28;20434;-30
2023/04/18 05:03:50;;;;;;;35.78;17.33;;;6.50;99.90;;;;;;5005391;28;20029;-30
2023/04/18 05:06:19;;;;;;;33.63;16.60;;;6.50;99.90;;;;;;5004397;28;20113;-31
2023/04/18 05:08:49;;;;;;;31.15;16.45;;;6.50;99.90;;;;;;5006346;28;20797;-30
2023/04/18 05:11:16;;;;;;;30.10;15.85;;;6.40;99.90;;;;;;5004087;28;20030;-32
2023/04/18 05:13:41;;;;;;;33.22;17.15;;;6.50;99.90;;;;;;5004765;28;20034;-31
2023/04/18 05:16:07;;;;;;;36.03;16.60;;;6.40;99.90;;;;;;5000266;28;20122;-32
2023/04/18 05:18:33;;;;;;;33.05;17.27;;;6.40;99.90;;;;;;5007606;28;20040;-31
2023/04/18 05:20:59;;;;;;;34.72;17.92;;;6.40;99.90;;;;;;5000424;28;20096;-32
2023/04/18 05:23:24;;;;;;;35.42;17.05;;;6.40;99.90;;;;;;5003623;28;21290;-31
2023/04/18 05:25:51;;;;;;;30.90;16.25;;;6.40;99.90;;;;;;5003487;28;20040;-32
2023/04/18 05:28:16;;;;;;;33.97;16.08;;;6.40;99.90;;;;;;5003429;28;20108;-32
2023/04/18 05:30:43;;;;;;;30.90;16.83;;;6.40;99.90;;;;;;5003643;28;20105;-32
2023/04/18 05:33:09;;;;;;;37.53;17.13;;;6.50;99.90;;;;;;5002820;28;20273;-32
2023/04/18 05:35:35;;;;;;;33.13;16.42;;;6.50;99.90;;;;;;5001557;28;20088;-31
2023/04/18 05:38:00;;;;;;;34.92;19.00;;;6.50;99.90;;;;;;5003725;28;20383;-32
2023/04/18 05:40:26;;;;;;;28.70;15.57;;;6.40;99.90;;;;;;5002766;28;20500;-32
2023/04/18 05:42:51;;;;;;;35.10;18.50;;;6.50;99.90;;;;;;5018421;28;20105;-31
2023/04/18 05:45:18;;;;;;;33.90;17.20;;;6.50;99.90;;;;;;5019684;28;20033;-32
2023/04/18 05:47:43;;;;;;;33.47;17.00;;;6.50;99.90;;;;;;5003035;28;20464;-32
2023/04/18 05:50:09;;;;;;;34.88;17.98;;;6.50;99.90;;;;;;5003780;28;20049;-31
2023/04/18 05:52:37;;;;;;;32.40;15.32;;;6.50;99.90;;;;;;5001756;28;20038;-32
2023/04/18 05:55:04;;;;;;;32.35;16.27;;;6.60;99.90;;;;;;5001109;28;20034;-32
2023/04/18 05:57:30;;;;;;;38.97;18.15;;;6.60;99.90;;;;;;5002234;28;20406;-32
2023/04/18 05:59:55;;;;;;;33.20;16.17;;;6.50;99.90;;;;;;5005719;28;20025;-32
2023/04/18 06:02:21;;;;;;;32.90;16.92;;;6.60;99.90;;;;;;5002259;28;20030;-31
2023/04/18 06:04:47;;;;;;;34.85;17.52;;;6.60;99.90;;;;;;5000874;28;20498;-32
2023/04/18 06:07:13;;;;;;;35.17;16.33;;;6.60;99.90;;;;;;5005724;28;20189;-32
2023/04/18 06:09:39;;;;;;;29.30;16.70;;;6.50;99.90;;;;;;5002201;28;20504;-31
2023/04/18 06:12:05;;;;;;;33.55;17.98;;;6.60;99.90;;;;;;5003080;28;20041;-32
2023/04/18 06:14:30;;;;;;;36.85;17.05;;;6.60;99.90;;;;;;5000943;28;20426;-32
2023/04/18 06:16:56;;;;;;;36.63;17.33;;;6.60;99.90;;;;;;5004224;28;20403;-31
2023/04/18 06:19:22;;;;;;;34.42;16.85;;;6.60;99.90;;;;;;5003624;28;20476;-31
2023/04/18 06:21:48;;;;;;;35.47;18.10;;;6.60;99.90;;;;;;5001489;28;20053;-32
2023/04/18 06:24:13;;;;;;;30.95;15.90;;;6.60;99.90;;;;;;5001179;28;20096;-31
2023/04/18 06:26:39;;;;;;;31.30;16.42;;;6.60;99.90;;;;;;5000150;28;20030;-31
2023/04/18 06:29:05;;;;;;;32.03;17.63;;;6.60;99.90;;;;;;5003013;28;20034;-32
2023/04/18 06:31:30;;;;;;;36.42;17.60;;;6.70;99.90;;;;;;5001476;28;20042;-32
2023/04/18 06:33:56;;;;;;;35.97;17.17;;;6.70;99.90;;;;;;5002995;28;20092;-31
2023/04/18 06:36:21;;;;;;;30.02;15.73;;;6.80;99.90;;;;;;5003800;28;20513;-31
2023/04/18 06:38:47;;;;;;;31.15;16.38;;;6.70;99.90;;;;;;5002497;28;20062;-31
2023/04/18 06:41:14;;;;;;;32.80;15.82;;;6.70;99.90;;;;;;5003851;28;20026;-32
2023/04/18 06:43:39;;;;;;;33.60;18.10;;;6.80;99.90;;;;;;4998781;28;20543;-32
2023/04/18 06:46:05;;;;;;;30.55;16.95;;;6.90;99.90;;;;;;5002552;28;20113;-32
2023/04/18 06:48:31;;;;;;;35.08;17.00;;;6.90;99.90;;;;;;4998714;28;20030;-32
2023/04/18 06:50:56;;;;;;;34.10;16.55;;;6.90;99.90;;;;;;5002878;28;20041;-32
2023/04/18 06:53:22;;;;;;;37.35;18.35;;;6.90;99.90;;;;;;5001792;28;20406;-32
2023/04/18 06:55:48;;;;;;;34.72;17.40;;;6.80;99.90;;;;;;5002805;28;20037;-34
2023/04/18 06:58:15;;;;;;;36.38;17.27;;;6.80;99.90;;;;;;5001320;28;20072;-32
2023/04/18 07:00:41;;;;;;;33.13;16.02;;;6.90;99.90;;;;;;5000709;28;20486;-31
2023/04/18 07:03:11;;;;;;;32.45;17.08;;;6.90;99.90;;;;;;5004595;28;20052;-31
2023/04/18 07:05:40;;;;;;;33.53;15.93;;;7.00;99.90;;;;;;5003021;28;20100;-32
2023/04/18 07:08:06;;;;;;;32.55;16.23;;;7.10;99.90;;;;;;4997125;28;20068;-32
2023/04/18 07:10:31;;;;;;;32.45;14.95;;;7.20;99.90;;;;;;5005045;28;20041;-31
2023/04/18 07:12:57;;;;;;;30.50;16.80;;;7.20;99.90;;;;;;5001542;28;20034;-32
2023/04/18 07:15:23;;;;;;;28.95;14.73;;;7.30;99.90;;;;;;5002501;28;20033;-32
2023/04/18 07:17:48;;;;;;;35.95;15.95;;;7.30;99.90;;;;;;5000845;28;20030;-32
2023/04/18 07:20:14;;;;;;;28.52;15.77;;;7.30;99.90;;;;;;5001897;28;20088;-32
2023/04/18 07:22:40;;;;;;;27.30;14.43;;;7.40;99.90;;;;;;5018455;28;20529;-32
2023/04/18 07:25:06;;;;;;;26.95;14.43;;;7.40;99.90;;;;;;5001284;28;20062;-32
2023/04/18 07:27:35;;;;;;;31.20;15.38;;;7.50;99.90;;;;;;5001277;28;20030;-32
2023/04/18 07:30:02;;;;;;;29.42;15.63;;;7.50;99.90;;;;;;5003030;28;20096;-32
2023/04/18 07:32:28;;;;;;;27.67;15.60;;;7.50;99.90;;;;;;5003601;28;20049;-32
2023/04/18 07:34:54;;;;;;;25.67;14.25;;;7.50;99.90;;;;;;5002966;28;20403;-32
2023/04/18 07:37:20;;;;;;;27.38;14.70;;;7.60;99.90;;;;;;5004044;28;20053;-32
2023/04/18 07:39:46;;;;;;;27.80;14.50;;;7.70;99.90;;;;;;5004102;28;20050;-32
2023/04/18 07:42:12;;;;;;;25.35;14.20;;;7.70;99.90;;;;;;5002741;28;20112;-31
2023/04/18 07:44:38;;;;;;;28.65;14.25;;;7.70;99.90;;;;;;5000929;28;20550;-32
2023/04/18 07:47:08;;;;;;;26.73;14.80;;;7.80;99.90;;;;;;5002938;28;20391;-32
2023/04/18 07:49:34;;;;;;;25.42;14.98;;;7.80;99.90;;;;;;5001278;28;20053;-32
2023/04/18 07:51:59;;;;;;;26.75;15.18;;;7.90;99.90;;;;;;5003079;28;20038;-32
2023/04/18 07:54:25;;;;;;;22.52;14.30;;;8.10;99.90;;;;;;5002167;28;20037;-31
2023/04/18 07:56:51;;;;;;;26.20;14.27;;;8.10;99.90;;;;;;5004537;28;20759;-32
2023/04/18 07:59:16;;;;;;;25.95;14.32;;;8.20;99.90;;;;;;5001121;28;20096;-32
2023/04/18 08:01:42;;;;;;;25.92;14.70;;;8.30;99.90;;;;;;5006148;28;20561;-32
2023/04/18 08:04:07;;;;;;;27.83;13.27;;;8.40;99.90;;;;;;5005406;28;20117;-32
2023/04/18 08:06:33;;;;;;;28.70;15.32;;;8.40;99.90;;;;;;5007459;28;20084;-32
2023/04/18 08:09:03;;;;;;;28.92;14.35;;;8.40;99.90;;;;;;5009899;28;20502;-32
2023/04/18 08:11:29;;;;;;;27.30;15.00;;;8.40;99.90;;;;;;5005195;28;20046;-32
2023/04/18 08:13:55;;;;;;;24.85;13.40;;;8.50;99.90;;;;;;5008811;28;20419;-31
2023/04/18 08:16:20;;;;;;;25.20;13.77;;;8.60;99.90;;;;;;5005589;28;20029;-32
2023/04/18 08:18:46;;;;;;;24.02;13.82;;;8.80;99.90;;;;;;5009711;28;20774;-32
2023/04/18 08:21:11;;;;;;;24.48;13.15;;;9.00;99.90;;;;;;5007818;28;20034;-32
2023/04/18 08:23:37;;;;;;;24.55;14.00;;;8.90;99.90;;;;;;5004699;28;20030;-32
2023/04/18 08:26:03;;;;;;;24.58;14.32;;;9.00;99.90;;;;;;5005864;28;20112;-31
2023/04/18 08:28:28;;;;;;;24.05;14.32;;;9.10;99.90;;;;;;5004109;28;20030;-31
2023/04/18 08:30:55;;;;;;;23.30;13.02;;;9.10;99.90;;;;;;5005372;28;20120;-31
2023/04/18 08:33:22;;;;;;;25.48;14.07;;;9.10;99.90;;;;;;5005218;28;20022;-31
2023/04/18 08:35:49;;;;;;;22.17;12.57;;;9.10;99.90;;;;;;5004709;28;20042;-32
2023/04/18 08:38:16;;;;;;;19.95;11.30;;;9.10;99.90;;;;;;5006527;28;20110;-33
2023/04/18 08:40:42;;;;;;;25.60;13.65;;;9.10;99.90;;;;;;5004838;28;20263;-31
2023/04/18 08:43:11;;;;;;;22.60;13.25;;;9.20;99.90;;;;;;5007465;28;20643;-32
2023/04/18 08:45:38;;;;;;;23.23;13.25;;;9.50;99.90;;;;;;5003203;28;20493;-32
2023/04/18 08:48:05;;;;;;;21.92;12.27;;;9.70;99.90;;;;;;5004987;28;20388;-32
2023/04/18 08:50:31;;;;;;;23.33;12.25;;;9.70;99.90;;;;;;5006734;28;20429;-31
2023/04/18 08:52:58;;;;;;;23.77;13.02;;;9.70;99.90;;;;;;5003843;28;20132;-32
2023/04/18 08:55:24;;;;;;;23.77;13.68;;;9.60;99.90;;;;;;5004950;28;20044;-32
2023/04/18 08:57:52;;;;;;;19.67;12.13;;;9.70;99.90;;;;;;5003700;28;20026;-32
2023/04/18 09:00:18;;;;;;;21.17;12.18;;;9.60;99.90;;;;;;5005498;28;20033;-33
2023/04/18 09:02:45;;;;;;;20.55;11.60;;;9.70;99.90;;;;;;5002502;28;20038;-32
2023/04/18 09:05:18;;;;;;;18.88;11.85;;;9.70;99.90;;;;;;5008055;28;20495;-31
2023/04/18 09:07:45;;;;;;;21.30;12.68;;;9.70;99.90;;;;;;5003726;28;20113;-32
2023/04/18 09:10:12;;;;;;;19.83;12.60;;;9.70;99.90;;;;;;5004539;28;20033;-31
2023/04/18 09:12:51;;;;;;;22.50;12.35;;;9.70;99.90;;;;;;5003588;28;20034;-32
2023/04/18 09:15:22;;;;;;;19.80;11.50;;;9.90;99.90;;;;;;5006330;28;20061;-31
2023/04/18 09:17:51;;;;;;;19.35;11.48;;;10.00;99.90;;;;;;5006957;28;20469;-32
2023/04/18 09:20:40;;;;;;;17.98;10.55;;;10.10;99.90;;;;;;5006860;28;20426;-32
2023/04/18 09:23:22;;;;;;;18.30;8.88;;;10.10;99.90;;;;;;5004302;28;20835;-31
2023/04/18 09:25:50;;;;;;;19.38;11.00;;;10.20;99.90;;;;;;5002411;28;20034;-32
2023/04/18 09:28:23;;;;;;;;;;;10.20;99.90;;;;;;5006818;28;20033;-31
2023/04/18 09:30:51;;;;;;;18.42;10.75;;;10.10;99.90;;;;;;5001710;28;20362;-31
2023/04/18 09:33:16;;;;;;;18.95;11.77;;;10.00;99.90;;;;;;5004444;28;20113;-31
2023/04/18 09:35:42;;;;;;;19.10;10.82;;;10.00;99.90;;;;;;5006427;28;20136;-31
2023/04/18 09:38:08;;;;;;;17.00;10.23;;;10.00;99.90;;;;;;5001663;28;20037;-32
2023/04/18 09:40:34;;;;;;;18.33;10.77;;;10.00;99.90;;;;;;5003879;28;20049;-31
2023/04/18 09:43:00;;;;;;;15.80;9.75;;;10.10;99.90;;;;;;5000612;28;20072;-31
2023/04/18 09:45:26;;;;;;;17.98;10.85;;;10.20;99.90;;;;;;5005603;28;20391;-32
2023/04/18 09:47:52;;;;;;;17.00;9.30;;;10.30;99.90;;;;;;5004126;28;20028;-32
2023/04/18 09:50:19;;;;;;;18.63;10.40;;;10.30;99.90;;;;;;5006302;28;20495;-31
2023/04/18 09:52:46;;;;;;;15.98;9.40;;;10.30;99.90;;;;;;5004383;28;20026;-31
2023/04/18 09:55:14;;;;;;;15.60;8.38;;;10.20;99.90;;;;;;5002734;28;20124;-31
2023/04/18 09:57:42;;;;;;;;;;;10.20;99.90;;;;;;5004326;28;21716;-32
2023/04/18 10:00:09;;;;;;;16.77;9.27;;;10.30;99.90;;;;;;5003286;28;19996;-31
2023/04/18 10:03:04;;;;;;;17.20;9.57;;;10.20;99.90;;;;;;5002431;28;20026;-31
2023/04/18 10:05:35;;;;;;;15.90;9.27;;;10.30;99.90;;;;;;5004670;28;20046;-31
2023/04/18 10:08:01;;;;;;;15.63;9.18;;;10.20;99.90;;;;;;5004320;28;20044;-31
2023/04/18 10:10:28;;;;;;;15.73;8.60;;;10.20;99.90;;;;;;5004176;28;20033;-31
2023/04/18 10:12:56;;;;;;;18.60;9.52;;;10.20;99.90;;;;;;4999553;28;20034;-31
2023/04/18 10:15:24;;;;;;;15.40;9.75;;;10.20;99.90;;;;;;5004927;28;20038;-31
2023/04/18 10:17:55;;;;;;;14.88;9.65;;;10.10;99.90;;;;;;5003352;28;20491;-31
2023/04/18 10:20:23;;;;;;;16.45;8.98;;;10.10;99.90;;;;;;5004820;28;20205;-31
2023/04/18 10:22:50;;;;;;;;;;;10.10;99.90;;;;;;5017021;28;20026;-31
2023/04/18 10:25:33;;;;;;;13.93;8.13;;;10.10;99.90;;;;;;5000733;28;20541;-33
2023/04/18 10:28:06;;;;;;;17.65;9.88;;;10.10;99.90;;;;;;4999727;28;20030;-32
2023/04/18 10:30:41;;;;;;;15.50;9.15;;;10.10;99.90;;;;;;5003847;28;20029;-31
2023/04/18 10:33:26;;;;;;;19.20;10.80;;;10.20;99.90;;;;;;5002870;28;20057;-31
2023/04/18 10:36:21;;;;;;;17.55;9.85;;;10.20;99.90;;;;;;5001914;28;20049;-31
2023/04/18 10:38:51;;;;;;;19.67;11.07;;;10.20;99.90;;;;;;4995786;28;20061;-31
2023/04/18 10:41:21;;;;;;;19.20;10.30;;;10.10;99.90;;;;;;5005199;28;20021;-31
2023/04/18 10:44:05;;;;;;;18.58;9.80;;;10.20;99.90;;;;;;5002410;28;20018;-31
2023/04/18 10:46:31;;;;;;;17.75;9.27;;;10.30;99.90;;;;;;5004981;28;20489;-31
2023/04/18 10:49:15;;;;;;;15.75;9.10;;;10.40;99.90;;;;;;5005171;28;20053;-31
2023/04/18 10:51:43;;;;;;;17.10;8.40;;;10.50;99.90;;;;;;5002058;28;20033;-31
2023/04/18 10:54:11;;;;;;;17.08;8.50;;;10.50;99.90;;;;;;5005117;28;20040;-31
2023/04/18 10:56:38;;;;;;;16.25;8.65;;;10.50;99.90;;;;;;5004399;28;20033;-31
2023/04/18 10:59:04;;;;;;;16.15;8.57;;;10.50;99.90;;;;;;5012108;28;20025;-31
2023/04/18 11:01:31;;;;;;;13.68;9.02;;;10.50;99.90;;;;;;5004803;28;20029;-31
2023/04/18 11:03:57;;;;;;;16.88;8.73;;;10.50;99.90;;;;;;5003674;28;20404;-32
2023/04/18 11:06:27;;;;;;;18.83;9.60;;;10.40;99.90;;;;;;4999813;28;20037;-31
2023/04/18 11:09:12;;;;;;;13.82;8.48;;;10.40;99.90;;;;;;5003254;28;20038;-31
2023/04/18 11:11:38;;;;;;;12.65;7.78;;;10.30;99.90;;;;;;5002452;28;20418;-32
2023/04/18 11:14:04;;;;;;;13.07;7.85;;;10.30;99.90;;;;;;5001280;28;20037;-31
2023/04/18 11:16:32;;;;;;;14.25;8.73;;;10.40;99.90;;;;;;5003997;28;20077;-31
2023/04/18 11:18:58;;;;;;;13.43;8.38;;;10.70;99.90;;;;;;5019120;28;20058;-31
2023/04/18 11:21:27;;;;;;;16.00;8.60;;;10.80;99.90;;;;;;5002191;28;20038;-31
2023/04/18 11:23:56;;;;;;;17.23;7.78;;;10.70;99.90;;;;;;4999897;28;20451;-31
2023/04/18 11:26:25;;;;;;;12.45;8.23;;;10.60;99.90;;;;;;5000272;28;20022;-31
2023/04/18 11:28:55;;;;;;;11.90;7.30;;;10.50;99.90;;;;;;5003823;28;20541;-31
2023/04/18 11:31:23;;;;;;;13.30;8.10;;;10.50;99.90;;;;;;4999586;28;20038;-32
2023/04/18 11:33:54;;;;;;;13.50;8.00;;;10.60;99.90;;;;;;5014888;28;20491;-31
2023/04/18 11:36:20;;;;;;;13.27;7.50;;;10.70;99.90;;;;;;5001396;28;20053;-31
2023/04/18 11:38:45;;;;;;;13.77;8.20;;;10.70;99.90;;;;;;5007761;28;20502;-31
2023/04/18 11:41:13;;;;;;;12.90;7.57;;;10.80;99.90;;;;;;5002715;28;20033;-32
2023/04/18 11:43:42;;;;;;;12.00;7.13;;;10.80;99.90;;;;;;5006303;28;20030;-32
2023/04/18 11:46:07;;;;;;;15.25;8.38;;;10.70;99.90;;;;;;5006141;28;20029;-31
2023/04/18 11:48:35;;;;;;;14.02;7.80;;;10.60;99.90;;;;;;5004559;28;20052;-31
2023/04/18 11:51:00;;;;;;;11.98;7.10;;;10.50;99.90;;;;;;5003781;28;20056;-31
2023/04/18 11:53:44;;;;;;;14.60;8.50;;;10.50;99.90;;;;;;5005349;28;20047;-32
2023/04/18 11:56:12;;;;;;;12.55;7.28;;;10.70;99.90;;;;;;5006298;28;20042;-32
2023/04/18 11:58:37;;;;;;;13.25;7.75;;;10.80;99.90;;;;;;5005167;28;20084;-32
2023/04/18 12:01:15;;;;;;;13.32;7.78;;;10.80;99.90;;;;;;5006181;28;20038;-32
2023/04/18 12:03:42;;;;;;;15.77;8.43;;;10.80;99.90;;;;;;5004211;28;20559;-33
2023/04/18 12:06:08;;;;;;;14.15;8.23;;;10.80;99.90;;;;;;5008376;28;20281;-31
2023/04/18 12:08:33;;;;;;;14.75;9.07;;;10.60;99.90;;;;;;5005806;28;20084;-31
2023/04/18 12:10:59;;;;;;;12.20;7.28;;;10.50;99.90;;;;;;5006330;28;20026;-31
2023/04/18 12:13:29;;;;;;;12.98;7.80;;;10.60;99.90;;;;;;5004824;28;20109;-31
2023/04/18 12:15:55;;;;;;;14.23;8.02;;;10.60;99.90;;;;;;5006480;28;20368;-31
2023/04/18 12:18:23;;;;;;;12.25;8.23;;;10.80;99.90;;;;;;5007688;28;20076;-31
2023/04/18 12:20:51;;;;;;;14.98;8.30;;;10.80;99.90;;;;;;5007094;28;21222;-31
2023/04/18 12:23:41;;;;;;;16.15;9.57;;;10.70;99.90;;;;;;5008571;28;20022;-31
2023/04/18 12:26:14;;;;;;;12.30;6.78;;;10.60;99.90;;;;;;5006070;28;20515;-31
2023/04/18 12:28:44;;;;;;;12.02;8.15;;;10.50;99.90;;;;;;5003730;28;20042;-32
2023/04/18 12:31:10;;;;;;;15.43;8.05;;;10.40;99.90;;;;;;5004032;28;20598;-32
2023/04/18 12:33:36;;;;;;;12.68;7.38;;;10.50;99.90;;;;;;5004423;28;20033;-33
2023/04/18 12:36:02;;;;;;;11.48;7.40;;;10.50;99.90;;;;;;5006178;28;20046;-31
2023/04/18 12:38:27;;;;;;;16.55;8.25;;;10.50;99.90;;;;;;5005732;28;20053;-32